createdAt,value
2023-05-18T00:00:41.499Z,41.08
2023-05-18T00:01:41.524Z,41.06
2023-05-18T00:02:41.647Z,41.06
2023-05-18T00:03:41.734Z,41.07
2023-05-18T00:04:42.346Z,41.08
2023-05-18T00:05:41.762Z,41.08
2023-05-18T00:06:41.818Z,41.12
2023-05-18T00:07:41.944Z,41.08
2023-05-18T00:08:42.701Z,41.10
2023-05-18T00:09:42.011Z,41.08
2023-05-18T00:10:42.070Z,41.11
2023-05-18T00:11:42.121Z,41.11
2023-05-18T00:12:42.181Z,41.09
2023-05-18T00:13:42.240Z,41.09
2023-05-18T00:14:42.303Z,41.09
2023-05-18T00:15:42.366Z,41.06
2023-05-18T00:16:42.445Z,41.06
2023-05-18T00:17:42.520Z,41.10
2023-05-18T00:18:42.601Z,41.11
2023-05-18T00:19:42.592Z,41.11
2023-05-18T00:20:42.653Z,41.10
2023-05-18T00:21:42.699Z,41.13
2023-05-18T00:22:42.795Z,41.08
2023-05-18T00:23:42.844Z,41.07
2023-05-18T00:24:42.912Z,41.10
2023-05-18T00:25:42.961Z,41.08
2023-05-18T00:26:43.027Z,41.10
2023-05-18T00:27:43.070Z,41.11
2023-05-18T00:28:43.299Z,41.09
2023-05-18T00:29:43.223Z,41.09
2023-05-18T00:30:43.234Z,41.10
2023-05-18T00:31:43.367Z,41.12
2023-05-18T00:32:43.388Z,41.11
2023-05-18T00:33:43.390Z,41.10
2023-05-18T00:34:43.434Z,41.10
2023-05-18T00:35:43.489Z,41.11
2023-05-18T00:36:43.557Z,41.08
2023-05-18T00:37:43.620Z,41.09
2023-05-18T00:38:43.696Z,41.10
2023-05-18T00:39:43.770Z,41.10
2023-05-18T00:40:43.828Z,41.10
2023-05-18T00:41:43.889Z,41.08
2023-05-18T00:42:43.960Z,41.11
2023-05-18T00:43:44.027Z,41.09
2023-05-18T00:44:44.329Z,41.07
2023-05-18T00:45:44.218Z,41.09
2023-05-18T00:46:44.272Z,41.07
2023-05-18T00:47:44.337Z,41.07
2023-05-18T00:48:44.387Z,41.07
2023-05-18T00:49:44.462Z,41.07
2023-05-18T00:50:44.536Z,41.08
2023-05-18T00:51:44.605Z,41.08
2023-05-18T00:52:44.652Z,41.09
2023-05-18T00:53:44.717Z,41.09
2023-05-18T00:54:45.777Z,41.08
2023-05-18T00:55:44.846Z,41.09
2023-05-18T00:56:44.939Z,41.09
2023-05-18T00:57:44.984Z,41.07
2023-05-18T00:58:45.055Z,41.07
2023-05-18T00:59:45.126Z,41.07
2023-05-18T01:00:46.339Z,41.08
2023-05-18T01:01:45.262Z,41.07
2023-05-18T01:02:45.481Z,41.10
2023-05-18T01:03:45.388Z,41.10
2023-05-18T01:04:45.457Z,41.09
2023-05-18T01:05:45.524Z,41.10
2023-05-18T01:06:45.603Z,41.10
2023-05-18T01:07:45.679Z,41.09
2023-05-18T01:08:45.732Z,41.07
2023-05-18T01:09:45.796Z,41.06
2023-05-18T01:10:45.854Z,41.09
2023-05-18T01:11:45.923Z,41.06
2023-05-18T01:12:45.993Z,41.09
2023-05-18T01:13:46.054Z,41.06
2023-05-18T01:14:46.131Z,41.08
2023-05-18T01:15:46.191Z,41.09
2023-05-18T01:16:46.294Z,41.06
2023-05-18T01:17:48.328Z,41.06
2023-05-18T01:18:46.459Z,41.05
2023-05-18T01:19:46.470Z,41.06
2023-05-18T01:20:46.567Z,41.05
2023-05-18T01:21:47.299Z,41.07
2023-05-18T01:22:46.692Z,41.07
2023-05-18T01:23:46.750Z,41.05
2023-05-18T01:24:46.839Z,41.07
2023-05-18T01:25:46.882Z,41.06
2023-05-18T01:26:46.978Z,41.05
2023-05-18T01:27:47.039Z,41.06
2023-05-18T01:28:47.125Z,41.06
2023-05-18T01:29:47.193Z,41.07
2023-05-18T01:30:47.324Z,41.07
2023-05-18T01:31:47.328Z,41.05
2023-05-18T01:32:47.452Z,41.08
2023-05-18T01:33:47.487Z,41.06
2023-05-18T01:34:47.564Z,41.04
2023-05-18T01:35:48.601Z,41.07
2023-05-18T01:36:47.691Z,41.05
2023-05-18T01:37:47.772Z,41.09
2023-05-18T01:38:47.844Z,41.07
2023-05-18T01:39:47.924Z,41.08
2023-05-18T01:40:47.996Z,41.05
2023-05-18T01:41:48.062Z,41.07
2023-05-18T01:42:48.134Z,41.05
2023-05-18T01:43:48.210Z,41.07
2023-05-18T01:44:48.349Z,41.06
2023-05-18T01:45:48.373Z,41.07
2023-05-18T01:46:48.478Z,41.09
2023-05-18T01:47:50.383Z,41.07
2023-05-18T01:48:48.577Z,41.05
2023-05-18T01:49:48.644Z,41.06
2023-05-18T01:50:48.720Z,41.06
2023-05-18T01:51:50.848Z,41.06
2023-05-18T01:52:48.869Z,41.06
2023-05-18T01:53:48.933Z,41.08
2023-05-18T01:54:49.005Z,41.05
2023-05-18T01:55:49.061Z,41.04
2023-05-18T01:56:49.134Z,41.03
2023-05-18T01:57:50.325Z,41.04
2023-05-18T01:58:49.296Z,41.04
2023-05-18T01:59:49.359Z,41.03
2023-05-18T02:00:50.185Z,41.03
2023-05-18T02:01:49.504Z,41.05
2023-05-18T02:02:49.622Z,41.04
2023-05-18T02:03:49.713Z,41.07
2023-05-18T02:04:49.713Z,41.07
2023-05-18T02:05:49.783Z,41.10
2023-05-18T02:06:50.828Z,41.04
2023-05-18T02:07:49.972Z,41.07
2023-05-18T02:08:49.993Z,41.04
2023-05-18T02:09:50.082Z,41.05
2023-05-18T02:10:50.133Z,41.06
2023-05-18T02:11:50.208Z,41.03
2023-05-18T02:12:50.282Z,41.06
2023-05-18T02:13:50.357Z,41.07
2023-05-18T02:14:50.427Z,41.04
2023-05-18T02:15:50.516Z,41.07
2023-05-18T02:16:50.557Z,41.06
2023-05-18T02:17:51.417Z,41.08
2023-05-18T02:18:50.739Z,41.02
2023-05-18T02:19:50.775Z,41.01
2023-05-18T02:20:50.851Z,41.04
2023-05-18T02:21:51.825Z,41.06
2023-05-18T02:22:50.988Z,41.05
2023-05-18T02:23:51.185Z,41.04
2023-05-18T02:24:51.140Z,41.05
2023-05-18T02:25:51.209Z,41.04
2023-05-18T02:26:51.279Z,41.03
2023-05-18T02:27:51.356Z,41.04
2023-05-18T02:28:51.419Z,41.06
2023-05-18T02:29:51.485Z,41.05
2023-05-18T02:30:51.553Z,41.03
2023-05-18T02:31:51.681Z,41.07
2023-05-18T02:32:51.746Z,41.09
2023-05-18T02:33:51.743Z,41.09
2023-05-18T02:34:51.816Z,41.05
2023-05-18T02:35:51.885Z,41.08
2023-05-18T02:36:51.961Z,41.08
2023-05-18T02:37:52.023Z,41.04
2023-05-18T02:38:52.840Z,41.05
2023-05-18T02:39:52.167Z,41.06
2023-05-18T02:40:52.243Z,41.04
2023-05-18T02:41:52.313Z,41.06
2023-05-18T02:42:52.390Z,41.02
2023-05-18T02:43:52.459Z,41.05
2023-05-18T02:44:52.514Z,41.05
2023-05-18T02:45:52.599Z,41.03
2023-05-18T02:46:52.659Z,41.04
2023-05-18T02:47:52.841Z,41.04
2023-05-18T02:48:52.800Z,41.08
2023-05-18T02:49:56.209Z,41.05
2023-05-18T02:50:52.895Z,41.08
2023-05-18T02:51:52.915Z,41.05
2023-05-18T02:52:53.069Z,41.06
2023-05-18T02:53:53.018Z,41.08
2023-05-18T02:54:52.970Z,41.06
2023-05-18T02:55:52.980Z,41.09
2023-05-18T02:56:53.856Z,41.06
2023-05-18T02:57:53.020Z,41.04
2023-05-18T02:58:53.041Z,41.03
2023-05-18T02:59:53.060Z,41.06
2023-05-18T03:00:53.091Z,41.05
2023-05-18T03:01:53.093Z,41.05
2023-05-18T03:02:53.191Z,41.06
2023-05-18T03:03:53.120Z,41.06
2023-05-18T03:04:53.142Z,41.06
2023-05-18T03:05:53.866Z,41.07
2023-05-18T03:06:53.225Z,41.05
2023-05-18T03:07:53.185Z,41.07
2023-05-18T03:08:53.193Z,41.03
2023-05-18T03:09:53.882Z,41.06
2023-05-18T03:10:53.227Z,41.05
2023-05-18T03:11:53.242Z,41.05
2023-05-18T03:12:53.263Z,41.07
2023-05-18T03:13:54.207Z,41.04
2023-05-18T03:14:53.311Z,41.05
2023-05-18T03:15:53.326Z,41.07
2023-05-18T03:16:53.386Z,41.06
2023-05-18T03:17:53.419Z,41.03
2023-05-18T03:18:53.395Z,41.09
2023-05-18T03:19:53.374Z,41.06
2023-05-18T03:20:53.389Z,41.07
2023-05-18T03:21:53.436Z,41.07
2023-05-18T03:22:53.412Z,41.05
2023-05-18T03:23:53.426Z,41.06
2023-05-18T03:24:53.526Z,41.05
2023-05-18T03:25:53.582Z,41.03
2023-05-18T03:26:53.644Z,41.03
2023-05-18T03:27:53.706Z,41.04
2023-05-18T03:28:53.784Z,41.05
2023-05-18T03:29:53.857Z,41.05
2023-05-18T03:30:53.931Z,41.04
2023-05-18T03:31:54.133Z,41.03
2023-05-18T03:32:54.214Z,41.03
2023-05-18T03:33:54.195Z,41.04
2023-05-18T03:34:54.249Z,41.04
2023-05-18T03:35:54.379Z,41.03
2023-05-18T03:36:54.418Z,41.03
2023-05-18T03:37:54.476Z,41.07
2023-05-18T03:38:54.551Z,41.04
2023-05-18T03:39:54.616Z,41.05
2023-05-18T03:40:54.692Z,41.06
2023-05-18T03:41:54.791Z,41.06
2023-05-18T03:42:54.839Z,41.04
2023-05-18T03:43:54.919Z,41.03
2023-05-18T03:44:55.008Z,41.01
2023-05-18T03:45:55.113Z,41.05
2023-05-18T03:46:55.159Z,41.04
2023-05-18T03:47:55.266Z,41.04
2023-05-18T03:48:55.311Z,41.05
2023-05-18T03:49:55.396Z,41.04
2023-05-18T03:50:55.457Z,41.06
2023-05-18T03:51:55.546Z,41.05
2023-05-18T03:52:55.619Z,41.05
2023-05-18T03:53:55.713Z,41.06
2023-05-18T03:54:55.791Z,41.05
2023-05-18T03:55:55.856Z,41.06
2023-05-18T03:56:55.946Z,41.07
2023-05-18T03:57:56.005Z,41.05
2023-05-18T03:58:56.073Z,41.09
2023-05-18T03:59:56.164Z,41.06
2023-05-18T04:00:56.244Z,41.03
2023-05-18T04:01:57.269Z,41.06
2023-05-18T04:02:56.514Z,41.04
2023-05-18T04:03:56.773Z,41.03
2023-05-18T04:04:56.524Z,41.04
2023-05-18T04:05:56.604Z,41.05
2023-05-18T04:06:56.673Z,41.03
2023-05-18T04:07:56.766Z,41.07
2023-05-18T04:08:56.829Z,41.04
2023-05-18T04:09:56.933Z,41.03
2023-05-18T04:10:57.002Z,41.01
2023-05-18T04:11:57.085Z,41.06
2023-05-18T04:12:57.154Z,41.03
2023-05-18T04:13:57.234Z,41.05
2023-05-18T04:14:57.322Z,41.01
2023-05-18T04:15:57.428Z,41.06
2023-05-18T04:16:57.526Z,41.04
2023-05-18T04:17:57.582Z,41.04
2023-05-18T04:18:57.692Z,41.03
2023-05-18T04:19:57.692Z,41.05
2023-05-18T04:20:57.765Z,41.05
2023-05-18T04:21:57.838Z,41.03
2023-05-18T04:22:57.925Z,41.01
2023-05-18T04:23:58.011Z,41.01
2023-05-18T04:24:58.110Z,41.04
2023-05-18T04:25:58.187Z,41.02
2023-05-18T04:26:58.258Z,41.02
2023-05-18T04:27:58.342Z,41.03
2023-05-18T04:28:58.416Z,41.03
2023-05-18T04:29:58.512Z,41.03
2023-05-18T04:30:58.591Z,41.03
2023-05-18T04:31:58.716Z,41.04
2023-05-18T04:32:58.894Z,41.03
2023-05-18T04:33:58.846Z,41.01
2023-05-18T04:34:58.899Z,41.02
2023-05-18T04:35:58.991Z,41.01
2023-05-18T04:36:59.070Z,41.04
2023-05-18T04:37:59.158Z,41.03
2023-05-18T04:38:59.228Z,41.00
2023-05-18T04:39:59.289Z,40.99
2023-05-18T04:40:59.367Z,41.02
2023-05-18T04:41:59.463Z,40.99
2023-05-18T04:42:59.528Z,41.04
2023-05-18T04:43:59.616Z,41.05
2023-05-18T04:44:59.694Z,41.01
2023-05-18T04:45:59.804Z,41.03
2023-05-18T04:46:59.863Z,41.02
2023-05-18T04:47:59.977Z,41.03
2023-05-18T04:49:00.040Z,41.02
2023-05-18T04:50:00.148Z,41.03
2023-05-18T04:51:00.192Z,40.99
2023-05-18T04:52:00.258Z,41.02
2023-05-18T04:53:00.342Z,41.02
2023-05-18T04:54:00.423Z,41.02
2023-05-18T04:55:01.261Z,41.01
2023-05-18T04:56:00.757Z,41.01
2023-05-18T04:57:00.677Z,41.00
2023-05-18T04:58:00.909Z,41.03
2023-05-18T04:59:00.854Z,41.00
2023-05-18T05:00:00.974Z,41.03
2023-05-18T05:01:01.028Z,41.02
2023-05-18T05:02:01.088Z,41.01
2023-05-18T05:03:01.293Z,41.00
2023-05-18T05:04:01.302Z,40.99
2023-05-18T05:05:01.332Z,40.98
2023-05-18T05:06:01.412Z,41.00
2023-05-18T05:07:01.490Z,41.00
2023-05-18T05:08:02.399Z,40.96
2023-05-18T05:09:01.720Z,40.97
2023-05-18T05:10:01.894Z,40.98
2023-05-18T05:11:01.814Z,40.96
2023-05-18T05:12:01.890Z,40.98
2023-05-18T05:13:01.970Z,40.97
2023-05-18T05:14:02.072Z,40.97
2023-05-18T05:15:02.146Z,40.97
2023-05-18T05:16:02.258Z,40.99
2023-05-18T05:17:02.320Z,40.98
2023-05-18T05:18:02.463Z,40.98
2023-05-18T05:19:02.554Z,40.98
2023-05-18T05:20:02.564Z,40.97
2023-05-18T05:21:02.644Z,40.98
2023-05-18T05:22:02.738Z,40.97
2023-05-18T05:23:02.867Z,40.98
2023-05-18T05:24:02.901Z,40.96
2023-05-18T05:25:05.216Z,40.96
2023-05-18T05:26:03.037Z,40.93
2023-05-18T05:27:04.766Z,40.95
2023-05-18T05:28:03.031Z,40.96
2023-05-18T05:29:03.044Z,40.95
2023-05-18T05:30:03.065Z,40.94
2023-05-18T05:31:03.121Z,40.95
2023-05-18T05:32:03.140Z,40.94
2023-05-18T05:33:03.951Z,40.96
2023-05-18T05:34:03.133Z,40.94
2023-05-18T05:35:03.158Z,40.93
2023-05-18T05:36:03.175Z,40.95
2023-05-18T05:37:03.183Z,40.93
2023-05-18T05:38:03.214Z,40.93
2023-05-18T05:39:03.306Z,40.97
2023-05-18T05:40:03.380Z,40.92
2023-05-18T05:41:03.455Z,40.93
2023-05-18T05:42:05.418Z,40.94
2023-05-18T05:43:03.608Z,40.93
2023-05-18T05:44:03.713Z,40.94
2023-05-18T05:45:04.400Z,40.94
2023-05-18T05:46:03.854Z,40.93
2023-05-18T05:47:03.984Z,40.92
2023-05-18T05:48:04.073Z,40.93
2023-05-18T05:49:04.989Z,40.92
2023-05-18T05:50:04.208Z,40.92
2023-05-18T05:51:04.269Z,40.91
2023-05-18T05:52:04.341Z,40.91
2023-05-18T05:53:04.410Z,40.91
2023-05-18T05:54:04.492Z,40.90
2023-05-18T05:55:04.573Z,40.92
2023-05-18T05:56:04.672Z,40.91
2023-05-18T05:57:04.741Z,40.92
2023-05-18T05:58:04.802Z,40.92
2023-05-18T05:59:04.893Z,40.91
2023-05-18T06:00:04.986Z,40.90
2023-05-18T06:01:05.063Z,40.90
2023-05-18T06:02:05.175Z,40.92
2023-05-18T06:03:05.237Z,40.89
2023-05-18T06:04:05.376Z,40.89
2023-05-18T06:05:05.361Z,40.88
2023-05-18T06:06:05.431Z,40.87
2023-05-18T06:07:05.529Z,40.90
2023-05-18T06:08:05.624Z,40.90
2023-05-18T06:09:05.679Z,40.89
2023-05-18T06:10:07.284Z,40.89
2023-05-18T06:11:05.934Z,40.89
2023-05-18T06:12:05.910Z,40.89
2023-05-18T06:13:05.996Z,40.89
2023-05-18T06:14:06.069Z,40.88
2023-05-18T06:15:06.312Z,40.87
2023-05-18T06:16:06.262Z,40.86
2023-05-18T06:17:06.426Z,40.87
2023-05-18T06:18:06.454Z,40.88
2023-05-18T06:19:06.466Z,40.86
2023-05-18T06:20:06.524Z,40.88
2023-05-18T06:21:06.593Z,40.88
2023-05-18T06:22:07.460Z,40.86
2023-05-18T06:23:06.729Z,40.87
2023-05-18T06:24:06.809Z,40.83
2023-05-18T06:25:06.898Z,40.86
2023-05-18T06:26:06.965Z,40.85
2023-05-18T06:27:07.032Z,40.85
2023-05-18T06:28:07.108Z,40.87
2023-05-18T06:29:07.198Z,40.84
2023-05-18T06:30:07.268Z,40.83
2023-05-18T06:31:07.368Z,40.83
2023-05-18T06:32:07.477Z,40.79
2023-05-18T06:33:09.516Z,40.84
2023-05-18T06:34:07.561Z,40.82
2023-05-18T06:35:07.641Z,40.80
2023-05-18T06:36:07.728Z,40.82
2023-05-18T06:37:07.770Z,40.84
2023-05-18T06:38:07.871Z,40.82
2023-05-18T06:39:07.939Z,40.80
2023-05-18T06:40:08.021Z,40.82
2023-05-18T06:41:09.038Z,40.81
2023-05-18T06:42:08.045Z,40.82
2023-05-18T06:43:08.318Z,40.82
2023-05-18T06:44:08.088Z,40.80
2023-05-18T06:45:08.096Z,40.81
2023-05-18T06:46:09.997Z,40.79
2023-05-18T06:47:08.141Z,40.82
2023-05-18T06:48:08.154Z,40.80
2023-05-18T06:49:08.164Z,40.81
2023-05-18T06:50:08.215Z,40.82
2023-05-18T06:51:08.288Z,40.78
2023-05-18T06:52:08.353Z,40.79
2023-05-18T06:53:08.437Z,40.77
2023-05-18T06:54:08.512Z,40.75
2023-05-18T06:55:08.583Z,40.76
2023-05-18T06:56:08.654Z,40.76
2023-05-18T06:57:08.717Z,40.76
2023-05-18T06:58:08.806Z,40.78
2023-05-18T06:59:08.899Z,40.77
2023-05-18T07:00:08.963Z,40.75
2023-05-18T07:01:09.050Z,40.77
2023-05-18T07:02:09.111Z,40.79
2023-05-18T07:03:09.230Z,40.74
2023-05-18T07:04:09.330Z,40.75
2023-05-18T07:05:09.401Z,40.76
2023-05-18T07:06:09.388Z,40.75
2023-05-18T07:07:09.451Z,40.75
2023-05-18T07:08:09.601Z,40.75
2023-05-18T07:09:09.606Z,40.76
2023-05-18T07:10:09.674Z,40.74
2023-05-18T07:11:09.736Z,40.75
2023-05-18T07:12:09.804Z,40.72
2023-05-18T07:13:09.880Z,40.70
2023-05-18T07:14:09.955Z,40.71
2023-05-18T07:15:10.500Z,40.75
2023-05-18T07:16:10.176Z,40.73
2023-05-18T07:17:10.177Z,40.72
2023-05-18T07:18:10.296Z,40.74
2023-05-18T07:19:10.362Z,40.74
2023-05-18T07:20:10.408Z,40.73
2023-05-18T07:21:10.472Z,40.72
2023-05-18T07:22:10.598Z,40.72
2023-05-18T07:23:10.620Z,40.69
2023-05-18T07:24:10.693Z,40.70
2023-05-18T07:25:10.765Z,40.65
2023-05-18T07:26:10.839Z,40.66
2023-05-18T07:27:10.915Z,40.64
2023-05-18T07:28:10.996Z,40.66
2023-05-18T07:29:11.083Z,40.65
2023-05-18T07:30:11.166Z,40.65
2023-05-18T07:31:13.032Z,40.66
2023-05-18T07:32:11.288Z,40.64
2023-05-18T07:33:11.409Z,40.68
2023-05-18T07:34:11.473Z,40.66
2023-05-18T07:35:11.506Z,40.66
2023-05-18T07:36:11.583Z,40.66
2023-05-18T07:37:11.648Z,40.66
2023-05-18T07:38:11.731Z,40.67
2023-05-18T07:39:11.814Z,40.66
2023-05-18T07:40:11.888Z,40.64
2023-05-18T07:41:11.966Z,40.63
2023-05-18T07:42:12.025Z,40.64
2023-05-18T07:43:12.102Z,40.62
2023-05-18T07:44:12.169Z,40.64
2023-05-18T07:45:12.247Z,40.62
2023-05-18T07:46:12.314Z,40.63
2023-05-18T07:47:12.401Z,40.60
2023-05-18T07:48:12.492Z,40.62
2023-05-18T07:49:14.486Z,40.61
2023-05-18T07:50:12.601Z,40.63
2023-05-18T07:51:12.660Z,40.63
2023-05-18T07:52:12.728Z,40.62
2023-05-18T07:53:12.816Z,40.63
2023-05-18T07:54:12.887Z,40.65
2023-05-18T07:55:12.978Z,40.63
2023-05-18T07:56:13.022Z,40.59
2023-05-18T07:57:13.109Z,40.63
2023-05-18T07:58:13.172Z,40.61
2023-05-18T07:59:13.273Z,40.63
2023-05-18T08:00:13.317Z,40.57
2023-05-18T08:01:13.409Z,40.57
2023-05-18T08:02:13.517Z,40.57
2023-05-18T08:03:13.625Z,40.56
2023-05-18T08:04:13.759Z,40.61
2023-05-18T08:05:13.686Z,40.56
2023-05-18T08:06:13.875Z,40.55
2023-05-18T08:07:13.850Z,40.57
2023-05-18T08:08:13.922Z,40.55
2023-05-18T08:09:13.998Z,40.55
2023-05-18T08:10:14.078Z,40.58
2023-05-18T08:11:14.141Z,40.53
2023-05-18T08:12:14.216Z,40.53
2023-05-18T08:13:14.953Z,40.56
2023-05-18T08:14:14.384Z,40.52
2023-05-18T08:15:14.533Z,40.54
2023-05-18T08:16:14.564Z,40.56
2023-05-18T08:17:14.630Z,40.54
2023-05-18T08:18:15.487Z,40.55
2023-05-18T08:19:14.771Z,40.53
2023-05-18T08:20:14.820Z,40.54
2023-05-18T08:21:14.895Z,40.51
2023-05-18T08:22:14.972Z,40.55
2023-05-18T08:23:15.068Z,40.54
2023-05-18T08:24:15.125Z,40.55
2023-05-18T08:25:15.196Z,40.52
2023-05-18T08:26:15.276Z,40.51
2023-05-18T08:27:16.448Z,40.54
2023-05-18T08:28:15.432Z,40.54
2023-05-18T08:29:15.507Z,40.53
2023-05-18T08:30:15.762Z,40.54
2023-05-18T08:31:15.694Z,40.52
2023-05-18T08:32:15.835Z,40.53
2023-05-18T08:33:15.868Z,40.49
2023-05-18T08:34:15.911Z,40.50
2023-05-18T08:35:16.000Z,40.49
2023-05-18T08:36:16.101Z,40.53
2023-05-18T08:37:16.155Z,40.49
2023-05-18T08:38:16.239Z,40.48
2023-05-18T08:39:16.305Z,40.48
2023-05-18T08:40:16.389Z,40.48
2023-05-18T08:41:16.476Z,40.50
2023-05-18T08:42:16.561Z,40.48
2023-05-18T08:43:18.490Z,40.49
2023-05-18T08:44:16.711Z,40.49
2023-05-18T08:45:16.799Z,40.51
2023-05-18T08:46:16.855Z,40.50
2023-05-18T08:47:16.941Z,40.50
2023-05-18T08:48:17.093Z,40.48
2023-05-18T08:49:17.097Z,40.44
2023-05-18T08:50:18.007Z,40.47
2023-05-18T08:51:17.256Z,40.46
2023-05-18T08:52:17.485Z,40.44
2023-05-18T08:53:17.410Z,40.45
2023-05-18T08:54:17.472Z,40.45
2023-05-18T08:55:17.535Z,40.44
2023-05-18T08:56:17.609Z,40.47
2023-05-18T08:57:17.685Z,40.48
2023-05-18T08:58:17.767Z,40.49
2023-05-18T08:59:17.840Z,40.47
2023-05-18T09:00:17.917Z,40.47
2023-05-18T09:01:20.058Z,40.47
2023-05-18T09:02:18.123Z,40.48
2023-05-18T09:03:18.197Z,40.46
2023-05-18T09:04:18.248Z,40.48
2023-05-18T09:05:18.608Z,40.46
2023-05-18T09:06:18.413Z,40.44
2023-05-18T09:07:18.469Z,40.42
2023-05-18T09:08:18.550Z,40.40
2023-05-18T09:09:18.644Z,40.40
2023-05-18T09:10:18.731Z,40.40
2023-05-18T09:11:18.797Z,40.41
2023-05-18T09:12:18.884Z,40.40
2023-05-18T09:13:18.951Z,40.41
2023-05-18T09:14:19.040Z,40.40
2023-05-18T09:15:19.121Z,40.39
2023-05-18T09:16:19.226Z,40.38
2023-05-18T09:17:19.251Z,40.41
2023-05-18T09:19:19.537Z,40.41
2023-05-18T09:20:19.512Z,40.41
2023-05-18T09:21:19.575Z,40.39
2023-05-18T09:22:19.650Z,40.43
2023-05-18T09:23:19.747Z,40.41
2023-05-18T09:24:20.575Z,40.40
2023-05-18T09:25:19.900Z,40.39
2023-05-18T09:26:20.001Z,40.41
2023-05-18T09:27:20.055Z,40.41
2023-05-18T09:28:20.147Z,40.42
2023-05-18T09:29:20.220Z,40.41
2023-05-18T09:30:20.295Z,40.41
2023-05-18T09:31:20.386Z,40.41
2023-05-18T09:32:20.439Z,40.42
2023-05-18T09:33:20.614Z,40.41
2023-05-18T09:34:20.596Z,40.40
2023-05-18T09:35:20.671Z,40.38
2023-05-18T09:36:20.742Z,40.40
2023-05-18T09:37:20.812Z,40.39
2023-05-18T09:38:20.895Z,40.37
2023-05-18T09:39:20.967Z,40.39
2023-05-18T09:40:21.181Z,40.42
2023-05-18T09:41:21.118Z,40.39
2023-05-18T09:42:23.555Z,40.37
2023-05-18T09:43:21.244Z,40.40
2023-05-18T09:44:21.251Z,40.40
2023-05-18T09:45:21.288Z,40.39
2023-05-18T09:46:21.347Z,40.41
2023-05-18T09:47:21.323Z,40.40
2023-05-18T09:48:23.591Z,40.39
2023-05-18T09:49:21.368Z,40.42
2023-05-18T09:50:21.424Z,40.39
2023-05-18T09:51:21.432Z,40.38
2023-05-18T09:52:21.439Z,40.40
2023-05-18T09:53:21.472Z,40.39
2023-05-18T09:54:23.621Z,40.38
2023-05-18T09:55:21.528Z,40.36
2023-05-18T09:56:21.533Z,40.38
2023-05-18T09:57:21.556Z,40.41
2023-05-18T09:58:21.666Z,40.39
2023-05-18T09:59:21.601Z,40.37
2023-05-18T10:00:23.591Z,40.38
2023-05-18T10:01:22.553Z,40.38
2023-05-18T10:02:21.696Z,40.36
2023-05-18T10:03:21.726Z,40.36
2023-05-18T10:04:21.727Z,40.34
2023-05-18T10:05:21.722Z,40.32
2023-05-18T10:06:22.056Z,40.35
2023-05-18T10:07:21.752Z,40.36
2023-05-18T10:08:21.881Z,40.35
2023-05-18T10:09:21.779Z,40.37
2023-05-18T10:10:21.821Z,40.37
2023-05-18T10:11:21.867Z,40.38
2023-05-18T10:12:21.852Z,40.38
2023-05-18T10:13:21.866Z,40.34
2023-05-18T10:14:21.905Z,40.35
2023-05-18T10:15:21.925Z,40.35
2023-05-18T10:16:24.081Z,40.33
2023-05-18T10:17:22.052Z,40.34
2023-05-18T10:18:21.994Z,40.34
2023-05-18T10:19:22.069Z,40.37
2023-05-18T10:20:22.013Z,40.33
2023-05-18T10:21:22.038Z,40.35
2023-05-18T10:22:22.099Z,40.31
2023-05-18T10:23:23.026Z,40.32
2023-05-18T10:24:22.218Z,40.35
2023-05-18T10:25:22.294Z,40.32
2023-05-18T10:26:22.353Z,40.35
2023-05-18T10:27:22.430Z,40.34
2023-05-18T10:28:22.494Z,40.34
2023-05-18T10:29:22.564Z,40.31
2023-05-18T10:30:22.638Z,40.30
2023-05-18T10:31:22.777Z,40.32
2023-05-18T10:32:22.834Z,40.31
2023-05-18T10:33:29.092Z,40.31
2023-05-18T10:34:23.875Z,40.31
2023-05-18T10:35:22.889Z,40.31
2023-05-18T10:36:22.908Z,40.33
2023-05-18T10:37:22.931Z,40.33
2023-05-18T10:38:22.945Z,40.32
2023-05-18T10:39:22.963Z,40.30
2023-05-18T10:40:22.988Z,40.32
2023-05-18T10:41:22.996Z,40.32
2023-05-18T10:42:23.012Z,40.33
2023-05-18T10:43:24.110Z,40.32
2023-05-18T10:44:23.148Z,40.31
2023-05-18T10:45:23.224Z,40.30
2023-05-18T10:46:23.343Z,40.31
2023-05-18T10:47:23.644Z,40.32
2023-05-18T10:48:23.506Z,40.31
2023-05-18T10:49:23.544Z,40.31
2023-05-18T10:50:25.567Z,40.31
2023-05-18T10:51:23.702Z,40.28
2023-05-18T10:52:23.795Z,40.31
2023-05-18T10:53:23.840Z,40.28
2023-05-18T10:54:23.911Z,40.28
2023-05-18T10:55:23.996Z,40.30
2023-05-18T10:56:24.086Z,40.27
2023-05-18T10:57:24.134Z,40.27
2023-05-18T10:58:24.201Z,40.28
2023-05-18T10:59:24.283Z,40.28
2023-05-18T11:00:24.373Z,40.27
2023-05-18T11:01:24.426Z,40.28
2023-05-18T11:02:24.538Z,40.28
2023-05-18T11:03:24.595Z,40.24
2023-05-18T11:04:24.686Z,40.23
2023-05-18T11:05:24.830Z,40.21
2023-05-18T11:06:24.854Z,40.25
2023-05-18T11:07:24.935Z,40.24
2023-05-18T11:08:25.001Z,40.20
2023-05-18T11:09:25.086Z,40.20
2023-05-18T11:10:25.161Z,40.19
2023-05-18T11:11:25.233Z,40.16
2023-05-18T11:12:25.310Z,40.17
2023-05-18T11:13:25.394Z,40.18
2023-05-18T11:14:25.478Z,40.17
2023-05-18T11:15:26.549Z,40.16
2023-05-18T11:16:25.675Z,40.17
2023-05-18T11:17:25.859Z,40.16
2023-05-18T11:18:25.791Z,40.12
2023-05-18T11:19:25.913Z,40.17
2023-05-18T11:20:26.894Z,40.14
2023-05-18T11:21:26.019Z,40.15
2023-05-18T11:22:27.268Z,40.16
2023-05-18T11:23:26.893Z,40.13
2023-05-18T11:24:26.237Z,40.17
2023-05-18T11:25:26.309Z,40.13
2023-05-18T11:26:26.382Z,40.15
2023-05-18T11:27:27.004Z,40.14
2023-05-18T11:28:26.524Z,40.14
2023-05-18T11:29:26.589Z,40.12
2023-05-18T11:30:26.660Z,40.13
2023-05-18T11:31:27.585Z,40.14
2023-05-18T11:32:30.550Z,40.13
2023-05-18T11:33:26.899Z,40.10
2023-05-18T11:34:26.851Z,40.11
2023-05-18T11:35:26.888Z,40.12
2023-05-18T11:36:26.891Z,40.14
2023-05-18T11:37:28.065Z,40.16
2023-05-18T11:38:26.931Z,40.12
2023-05-18T11:39:26.952Z,40.13
2023-05-18T11:40:27.606Z,40.14
2023-05-18T11:41:26.990Z,40.15
2023-05-18T11:42:27.086Z,40.11
2023-05-18T11:43:27.025Z,40.09
2023-05-18T11:44:27.047Z,40.10
2023-05-18T11:45:27.048Z,40.07
2023-05-18T11:46:27.081Z,40.08
2023-05-18T11:47:27.129Z,40.09
2023-05-18T11:48:27.229Z,40.10
2023-05-18T11:49:27.129Z,40.09
2023-05-18T11:50:27.147Z,40.11
2023-05-18T11:51:27.159Z,40.07
2023-05-18T11:52:27.211Z,40.04
2023-05-18T11:53:28.029Z,40.03
2023-05-18T11:54:27.226Z,40.02
2023-05-18T11:55:27.256Z,40.03
2023-05-18T11:56:27.314Z,40.02
2023-05-18T11:57:27.348Z,40.04
2023-05-18T11:58:27.368Z,40.05
2023-05-18T11:59:27.436Z,40.04
2023-05-18T12:00:27.502Z,40.03
2023-05-18T12:01:27.569Z,40.05
2023-05-18T12:02:27.718Z,40.05
2023-05-18T12:03:27.785Z,40.04
2023-05-18T12:04:27.825Z,40.01
2023-05-18T12:05:27.850Z,40.03
2023-05-18T12:06:28.032Z,40.02
2023-05-18T12:07:27.975Z,39.99
2023-05-18T12:08:28.038Z,40.00
2023-05-18T12:09:28.132Z,40.02
2023-05-18T12:10:28.177Z,40.01
2023-05-18T12:11:28.238Z,40.01
2023-05-18T12:12:28.314Z,39.97
2023-05-18T12:13:28.368Z,39.95
2023-05-18T12:14:28.464Z,39.96
2023-05-18T12:15:28.495Z,39.98
2023-05-18T12:16:28.573Z,39.99
2023-05-18T12:17:28.646Z,39.95
2023-05-18T12:18:28.692Z,39.96
2023-05-18T12:19:28.802Z,39.96
2023-05-18T12:20:28.838Z,39.96
2023-05-18T12:21:28.905Z,39.99
2023-05-18T12:22:28.974Z,39.97
2023-05-18T12:23:29.050Z,39.98
2023-05-18T12:24:29.096Z,39.99
2023-05-18T12:25:29.250Z,39.95
2023-05-18T12:26:29.224Z,39.94
2023-05-18T12:27:32.075Z,39.96
2023-05-18T12:28:29.318Z,39.96
2023-05-18T12:29:29.352Z,39.95
2023-05-18T12:30:29.347Z,39.94
2023-05-18T12:31:29.470Z,39.93
2023-05-18T12:32:29.428Z,39.95
2023-05-18T12:33:29.428Z,39.91
2023-05-18T12:34:29.434Z,39.90
2023-05-18T12:35:29.713Z,39.86
2023-05-18T12:36:29.498Z,39.88
2023-05-18T12:37:38.008Z,39.89
2023-05-18T12:38:32.625Z,39.90
2023-05-18T12:39:29.592Z,39.91
2023-05-18T12:40:29.646Z,39.91
2023-05-18T12:41:29.595Z,39.91
2023-05-18T12:42:29.630Z,39.92
2023-05-18T12:43:29.642Z,39.89
2023-05-18T12:44:29.654Z,39.92
2023-05-18T12:45:29.827Z,39.89
2023-05-18T12:46:29.796Z,39.87
2023-05-18T12:47:29.760Z,39.85
2023-05-18T12:48:29.741Z,39.83
2023-05-18T12:49:29.751Z,39.81
2023-05-18T12:50:29.781Z,39.80
2023-05-18T12:51:29.797Z,39.83
2023-05-18T12:52:29.836Z,39.84
2023-05-18T12:53:29.835Z,39.85
2023-05-18T12:54:29.967Z,39.83